ACA744 KDFW-CYYZ
Flight info
| Callsign | ACA744 |
|---|---|
| Flight time | 2h 0m |
| Altitude | 37000 |
| Route | AKUNA9 MLC DCT RZC DCT BACTA DCT STL DCT BEKKI DCT GSH DCT SVM DCT QWERI NUBER6 |
| Aircraft | B77W/H-SDE1E2E3FGHIJ2J3J4J5M1RWXY/LB1D1 |
Departure
| Time | 2026-05-06 21:35 |
|---|---|
| Airport | Dallas Fort Worth International Airport (KDFW) |
Arrival
| Time | 2026-05-06 23:36 |
|---|---|
| Airport | Toronto Pearson International Airport (CYYZ) |
| Time | Latitude | Longitude | Altitude | Speed | Heading |
|---|---|---|---|---|---|
| 2026-05-06 21:03 | 32.89510 | -97.04377 | 603 ft | 0 kts | 1° |
| 2026-05-06 21:24 | 32.89500 | -97.04377 | 603 ft | 4 kts | 2° |
| 2026-05-06 21:24 | 32.89482 | -97.04378 | 603 ft | 3 kts | 3° |
| 2026-05-06 21:24 | 32.89460 | -97.04389 | 603 ft | 4 kts | 43° |
| 2026-05-06 21:24 | 32.89442 | -97.04406 | 603 ft | 4 kts | 6° |
| 2026-05-06 21:25 | 32.89427 | -97.04399 | 603 ft | 4 kts | 281° |
| 2026-05-06 21:25 | 32.89425 | -97.04368 | 603 ft | 4 kts | 270° |
| 2026-05-06 21:25 | 32.89425 | -97.04349 | 603 ft | 0 kts | 270° |
| 2026-05-06 21:27 | 32.89425 | -97.04351 | 603 ft | 0 kts | 270° |
| 2026-05-06 21:27 | 32.89426 | -97.04394 | 603 ft | 16 kts | 271° |
| 2026-05-06 21:28 | 32.89427 | -97.04533 | 603 ft | 17 kts | 271° |
| 2026-05-06 21:28 | 32.89428 | -97.04671 | 602 ft | 17 kts | 270° |
| 2026-05-06 21:28 | 32.89429 | -97.04714 | 600 ft | 3 kts | 270° |
| 2026-05-06 21:28 | 32.89388 | -97.04789 | 600 ft | 15 kts | 205° |
| 2026-05-06 21:29 | 32.89283 | -97.04766 | 600 ft | 16 kts | 174° |
| 2026-05-06 21:29 | 32.89175 | -97.04767 | 599 ft | 16 kts | 181° |
| 2026-05-06 21:29 | 32.89062 | -97.04768 | 596 ft | 17 kts | 180° |
| 2026-05-06 21:29 | 32.88938 | -97.04768 | 595 ft | 18 kts | 180° |
| 2026-05-06 21:30 | 32.88812 | -97.04769 | 596 ft | 18 kts | 180° |
| 2026-05-06 21:30 | 32.88687 | -97.04769 | 594 ft | 18 kts | 180° |
| 2026-05-06 21:30 | 32.88557 | -97.04770 | 592 ft | 19 kts | 178° |
| 2026-05-06 21:30 | 32.88503 | -97.04649 | 592 ft | 19 kts | 89° |
| 2026-05-06 21:31 | 32.88503 | -97.04492 | 595 ft | 19 kts | 89° |
| 2026-05-06 21:31 | 32.88502 | -97.04335 | 602 ft | 19 kts | 90° |
| 2026-05-06 21:31 | 32.88502 | -97.04179 | 615 ft | 19 kts | 90° |
| 2026-05-06 21:31 | 32.88501 | -97.04022 | 612 ft | 19 kts | 90° |
| 2026-05-06 21:32 | 32.88501 | -97.03854 | 600 ft | 21 kts | 90° |
| 2026-05-06 21:32 | 32.88500 | -97.03441 | 587 ft | 26 kts | 90° |
| 2026-05-06 21:32 | 32.88489 | -97.03258 | 584 ft | 15 kts | 117° |
| 2026-05-06 21:33 | 32.88403 | -97.03263 | 585 ft | 15 kts | 219° |
| 2026-05-06 21:33 | 32.88306 | -97.03289 | 584 ft | 15 kts | 180° |
| 2026-05-06 21:33 | 32.88201 | -97.03289 | 580 ft | 15 kts | 180° |
| 2026-05-06 21:33 | 32.88093 | -97.03290 | 583 ft | 15 kts | 180° |
| 2026-05-06 21:34 | 32.87991 | -97.03268 | 582 ft | 15 kts | 133° |
| 2026-05-06 21:34 | 32.87977 | -97.03145 | 585 ft | 14 kts | 91° |
| 2026-05-06 21:34 | 32.87985 | -97.03039 | 581 ft | 14 kts | 65° |
| 2026-05-06 21:34 | 32.88061 | -97.03008 | 581 ft | 0 kts | 359° |
| 2026-05-06 21:35 | 32.88076 | -97.03008 | 585 ft | 17 kts | 360° |
| 2026-05-06 21:35 | 32.88607 | -97.03004 | 582 ft | 136 kts | 360° |
| 2026-05-06 21:35 | 32.89823 | -97.03009 | 1164 ft | 192 kts | 358° |
| 2026-05-06 21:35 | 32.91134 | -97.03067 | 2947 ft | 182 kts | 357° |
| 2026-05-06 21:36 | 32.92420 | -97.03108 | 4011 ft | 189 kts | 359° |
| 2026-05-06 21:36 | 32.93752 | -97.03057 | 4752 ft | 197 kts | 358° |
| 2026-05-06 21:36 | 32.95218 | -97.03002 | 5045 ft | 230 kts | 358° |
| 2026-05-06 21:36 | 32.96936 | -97.02940 | 5032 ft | 256 kts | 358° |
| 2026-05-06 21:37 | 32.98718 | -97.02868 | 5056 ft | 257 kts | 359° |
| 2026-05-06 21:37 | 33.00505 | -97.02783 | 5788 ft | 259 kts | 359° |
| 2026-05-06 21:37 | 33.02346 | -97.02710 | 6729 ft | 268 kts | 357° |
| 2026-05-06 21:37 | 33.04217 | -97.02642 | 7614 ft | 275 kts | 357° |
| 2026-05-06 21:38 | 33.06164 | -97.02570 | 8447 ft | 285 kts | 356° |
| 2026-05-06 21:38 | 33.08146 | -97.02387 | 9271 ft | 294 kts | 10° |
| 2026-05-06 21:38 | 33.10109 | -97.01500 | 9996 ft | 309 kts | 21° |
| 2026-05-06 21:38 | 33.12094 | -97.00350 | 10546 ft | 329 kts | 22° |
| 2026-05-06 21:39 | 33.14257 | -96.99114 | 10801 ft | 360 kts | 22° |
| 2026-05-06 21:39 | 33.15807 | -96.98251 | 10950 ft | 379 kts | 22° |
| 2026-05-06 21:39 | 33.18262 | -96.96897 | 11484 ft | 395 kts | 21° |
| 2026-05-06 21:39 | 33.20795 | -96.95509 | 12334 ft | 405 kts | 21° |
| 2026-05-06 21:40 | 33.23358 | -96.94109 | 13286 ft | 411 kts | 20° |
| 2026-05-06 21:40 | 33.25987 | -96.92682 | 14184 ft | 418 kts | 20° |
| 2026-05-06 21:40 | 33.28666 | -96.91230 | 14969 ft | 428 kts | 19° |
| 2026-05-06 21:40 | 33.31412 | -96.89742 | 15756 ft | 437 kts | 19° |
| 2026-05-06 21:41 | 33.34215 | -96.88222 | 16544 ft | 446 kts | 19° |
| 2026-05-06 21:41 | 33.37062 | -96.86675 | 17316 ft | 454 kts | 18° |
| 2026-05-06 21:41 | 33.39971 | -96.85093 | 18077 ft | 463 kts | 18° |
| 2026-05-06 21:41 | 33.42926 | -96.83487 | 18755 ft | 471 kts | 18° |
| 2026-05-06 21:42 | 33.45925 | -96.81837 | 19508 ft | 477 kts | 19° |
| 2026-05-06 21:42 | 33.48872 | -96.80053 | 20351 ft | 482 kts | 21° |
| 2026-05-06 21:42 | 33.51837 | -96.78142 | 21229 ft | 485 kts | 22° |
| 2026-05-06 21:42 | 33.54812 | -96.76188 | 22001 ft | 490 kts | 22° |
| 2026-05-06 21:43 | 33.57826 | -96.74206 | 22710 ft | 496 kts | 22° |
| 2026-05-06 21:43 | 33.60876 | -96.72214 | 23432 ft | 502 kts | 22° |
| 2026-05-06 21:43 | 33.63962 | -96.70213 | 24056 ft | 507 kts | 21° |
| 2026-05-06 21:43 | 33.67094 | -96.68195 | 24607 ft | 513 kts | 21° |
| 2026-05-06 21:44 | 33.70257 | -96.66162 | 25141 ft | 519 kts | 21° |
| 2026-05-06 21:44 | 33.73458 | -96.64102 | 25663 ft | 525 kts | 21° |
| 2026-05-06 21:44 | 33.76703 | -96.62013 | 26140 ft | 531 kts | 21° |
| 2026-05-06 21:44 | 33.79980 | -96.59900 | 26664 ft | 537 kts | 21° |
| 2026-05-06 21:45 | 33.83292 | -96.57762 | 27131 ft | 544 kts | 21° |
| 2026-05-06 21:45 | 33.86647 | -96.55592 | 27661 ft | 549 kts | 21° |
| 2026-05-06 21:45 | 33.90028 | -96.53403 | 28175 ft | 554 kts | 21° |
| 2026-05-06 21:45 | 33.93443 | -96.51191 | 28659 ft | 559 kts | 21° |
| 2026-05-06 21:46 | 33.96890 | -96.48954 | 29102 ft | 564 kts | 21° |
| 2026-05-06 21:46 | 34.00355 | -96.46703 | 29556 ft | 569 kts | 21° |
| 2026-05-06 21:46 | 34.03814 | -96.44457 | 29958 ft | 574 kts | 21° |
| 2026-05-06 21:46 | 34.07342 | -96.42148 | 30331 ft | 580 kts | 22° |
| 2026-05-06 21:47 | 34.10867 | -96.39569 | 30646 ft | 589 kts | 26° |
| 2026-05-06 21:47 | 34.14237 | -96.36834 | 31041 ft | 592 kts | 28° |
| 2026-05-06 21:47 | 34.17613 | -96.33964 | 31531 ft | 592 kts | 29° |
| 2026-05-06 21:47 | 34.20966 | -96.31080 | 32050 ft | 591 kts | 29° |
| 2026-05-06 21:48 | 34.24327 | -96.28222 | 32516 ft | 589 kts | 28° |
| 2026-05-06 21:48 | 34.27712 | -96.25392 | 32919 ft | 591 kts | 27° |
| 2026-05-06 21:48 | 34.31103 | -96.22597 | 33379 ft | 590 kts | 27° |
| 2026-05-06 21:48 | 34.34514 | -96.19810 | 33848 ft | 591 kts | 27° |
| 2026-05-06 21:49 | 34.37935 | -96.17022 | 34158 ft | 593 kts | 26° |
| 2026-05-06 21:49 | 34.41315 | -96.14263 | 34541 ft | 593 kts | 26° |
| 2026-05-06 21:49 | 34.44727 | -96.11465 | 34989 ft | 591 kts | 26° |
| 2026-05-06 21:49 | 34.48122 | -96.08671 | 35412 ft | 588 kts | 26° |
| 2026-05-06 21:50 | 34.51501 | -96.05882 | 35830 ft | 587 kts | 26° |
| 2026-05-06 21:50 | 34.54885 | -96.03088 | 36212 ft | 586 kts | 26° |
| 2026-05-06 21:50 | 34.58254 | -96.00304 | 36576 ft | 586 kts | 26° |
| 2026-05-06 21:50 | 34.61625 | -95.97517 | 36931 ft | 587 kts | 25° |
| 2026-05-06 21:51 | 34.68414 | -95.91906 | 37038 ft | 593 kts | 25° |
| 2026-05-06 21:51 | 34.75161 | -95.86300 | 37041 ft | 587 kts | 25° |
| 2026-05-06 21:52 | 34.81888 | -95.80708 | 37058 ft | 584 kts | 25° |
| 2026-05-06 21:52 | 34.88420 | -95.74732 | 37077 ft | 595 kts | 34° |
| 2026-05-06 21:53 | 34.94411 | -95.67679 | 37063 ft | 600 kts | 39° |
| 2026-05-06 21:53 | 35.00239 | -95.60479 | 37035 ft | 600 kts | 38° |
| 2026-05-06 21:54 | 35.06201 | -95.53352 | 37035 ft | 600 kts | 37° |
| 2026-05-06 21:54 | 35.12234 | -95.46313 | 37041 ft | 601 kts | 37° |
| 2026-05-06 21:55 | 35.18315 | -95.39241 | 37049 ft | 604 kts | 36° |
| 2026-05-06 21:55 | 35.24385 | -95.32130 | 37026 ft | 604 kts | 37° |
| 2026-05-06 21:56 | 35.30434 | -95.25003 | 37037 ft | 603 kts | 37° |
| 2026-05-06 21:56 | 35.36483 | -95.17862 | 37036 ft | 603 kts | 37° |
| 2026-05-06 21:57 | 35.42481 | -95.10769 | 37072 ft | 603 kts | 37° |
| 2026-05-06 21:57 | 35.48522 | -95.03615 | 37058 ft | 604 kts | 37° |
| 2026-05-06 21:58 | 35.54564 | -94.96441 | 37028 ft | 603 kts | 37° |
| 2026-05-06 21:58 | 35.60591 | -94.89270 | 37045 ft | 603 kts | 37° |
| 2026-05-06 21:59 | 35.66617 | -94.82085 | 37113 ft | 603 kts | 36° |
| 2026-05-06 21:59 | 35.72648 | -94.74882 | 37055 ft | 605 kts | 37° |
| 2026-05-06 22:00 | 35.78683 | -94.67648 | 37060 ft | 605 kts | 37° |
| 2026-05-06 22:00 | 35.84676 | -94.60456 | 37068 ft | 606 kts | 37° |
| 2026-05-06 22:01 | 35.90748 | -94.53148 | 37059 ft | 607 kts | 37° |
| 2026-05-06 22:01 | 35.96751 | -94.45913 | 37056 ft | 606 kts | 37° |
| 2026-05-06 22:02 | 36.02781 | -94.38617 | 37055 ft | 606 kts | 37° |
| 2026-05-06 22:02 | 36.08806 | -94.31312 | 37050 ft | 606 kts | 37° |
| 2026-05-06 22:03 | 36.14836 | -94.23995 | 37058 ft | 606 kts | 37° |
| 2026-05-06 22:03 | 36.20852 | -94.16671 | 37063 ft | 607 kts | 37° |
| 2026-05-06 22:04 | 36.26756 | -94.09244 | 37049 ft | 611 kts | 41° |
| 2026-05-06 22:04 | 36.32406 | -94.01330 | 37059 ft | 612 kts | 43° |
| 2026-05-06 22:05 | 36.37964 | -93.93334 | 37064 ft | 612 kts | 43° |
| 2026-05-06 22:05 | 36.43535 | -93.85365 | 37076 ft | 610 kts | 42° |
| 2026-05-06 22:06 | 36.49142 | -93.77415 | 37063 ft | 612 kts | 42° |
| 2026-05-06 22:06 | 36.54759 | -93.69452 | 37078 ft | 612 kts | 42° |
| 2026-05-06 22:07 | 36.60368 | -93.61468 | 37058 ft | 614 kts | 42° |
| 2026-05-06 22:07 | 36.65949 | -93.53491 | 37054 ft | 615 kts | 42° |
| 2026-05-06 22:08 | 36.71569 | -93.45442 | 37104 ft | 616 kts | 42° |
| 2026-05-06 22:08 | 36.77208 | -93.37349 | 37040 ft | 618 kts | 42° |
| 2026-05-06 22:09 | 36.82846 | -93.29238 | 37056 ft | 617 kts | 42° |
| 2026-05-06 22:09 | 36.88430 | -93.21179 | 37064 ft | 618 kts | 43° |
| 2026-05-06 22:10 | 36.94054 | -93.13040 | 37066 ft | 618 kts | 43° |
| 2026-05-06 22:10 | 36.99688 | -93.04880 | 37082 ft | 619 kts | 42° |
| 2026-05-06 22:11 | 37.05316 | -92.96701 | 37073 ft | 620 kts | 43° |
| 2026-05-06 22:11 | 37.10934 | -92.88514 | 37064 ft | 620 kts | 43° |
| 2026-05-06 22:12 | 37.16544 | -92.80324 | 37068 ft | 619 kts | 43° |
| 2026-05-06 22:12 | 37.22115 | -92.72170 | 37109 ft | 618 kts | 43° |
| 2026-05-06 22:13 | 37.27708 | -92.63957 | 37068 ft | 618 kts | 43° |
| 2026-05-06 22:13 | 37.33283 | -92.55750 | 37076 ft | 618 kts | 43° |
| 2026-05-06 22:14 | 37.38873 | -92.47506 | 37072 ft | 618 kts | 43° |
| 2026-05-06 22:14 | 37.44428 | -92.39294 | 37081 ft | 619 kts | 43° |
| 2026-05-06 22:15 | 37.50000 | -92.31036 | 37065 ft | 621 kts | 43° |
| 2026-05-06 22:15 | 37.55585 | -92.22737 | 37049 ft | 621 kts | 43° |
| 2026-05-06 22:16 | 37.61160 | -92.14421 | 37049 ft | 620 kts | 43° |
| 2026-05-06 22:16 | 37.66723 | -92.06110 | 37048 ft | 620 kts | 43° |
| 2026-05-06 22:17 | 37.72290 | -91.97771 | 37081 ft | 621 kts | 43° |
| 2026-05-06 22:17 | 37.77948 | -91.89646 | 37062 ft | 616 kts | 38° |
| 2026-05-06 22:18 | 37.83963 | -91.81946 | 37081 ft | 613 kts | 36° |
| 2026-05-06 22:18 | 37.90011 | -91.74330 | 37081 ft | 614 kts | 36° |
| 2026-05-06 22:19 | 37.96036 | -91.66632 | 37112 ft | 614 kts | 37° |
| 2026-05-06 22:19 | 38.02024 | -91.58893 | 37074 ft | 614 kts | 37° |
| 2026-05-06 22:20 | 38.07999 | -91.51136 | 37073 ft | 613 kts | 37° |
| 2026-05-06 22:20 | 38.13954 | -91.43397 | 37087 ft | 612 kts | 37° |
| 2026-05-06 22:21 | 38.19877 | -91.35694 | 37122 ft | 612 kts | 37° |
| 2026-05-06 22:21 | 38.25840 | -91.27922 | 37096 ft | 612 kts | 37° |
| 2026-05-06 22:22 | 38.31778 | -91.20156 | 37094 ft | 612 kts | 37° |
| 2026-05-06 22:22 | 38.37715 | -91.12374 | 37077 ft | 612 kts | 37° |
| 2026-05-06 22:23 | 38.43608 | -91.04630 | 37061 ft | 611 kts | 37° |
| 2026-05-06 22:23 | 38.49519 | -90.96843 | 37060 ft | 611 kts | 37° |
| 2026-05-06 22:24 | 38.55395 | -90.89083 | 37073 ft | 611 kts | 37° |
| 2026-05-06 22:24 | 38.61308 | -90.81256 | 37076 ft | 611 kts | 37° |
| 2026-05-06 22:25 | 38.67214 | -90.73414 | 37107 ft | 612 kts | 37° |
| 2026-05-06 22:25 | 38.73144 | -90.65520 | 37075 ft | 613 kts | 37° |
| 2026-05-06 22:26 | 38.78052 | -90.58971 | 37076 ft | 613 kts | 37° |
| 2026-05-06 22:26 | 38.84917 | -90.49790 | 37063 ft | 612 kts | 37° |
| 2026-05-06 22:27 | 38.89779 | -90.43157 | 37136 ft | 614 kts | 39° |
| 2026-05-06 22:27 | 38.95506 | -90.34988 | 37050 ft | 615 kts | 40° |
| 2026-05-06 22:28 | 39.01187 | -90.26785 | 37068 ft | 614 kts | 40° |
| 2026-05-06 22:28 | 39.06888 | -90.18601 | 37065 ft | 613 kts | 40° |
| 2026-05-06 22:29 | 39.12591 | -90.10443 | 37148 ft | 612 kts | 40° |
| 2026-05-06 22:29 | 39.18290 | -90.02274 | 37076 ft | 613 kts | 40° |
| 2026-05-06 22:30 | 39.23979 | -89.94092 | 37060 ft | 610 kts | 40° |
| 2026-05-06 22:30 | 39.29637 | -89.85921 | 37073 ft | 610 kts | 40° |
| 2026-05-06 22:31 | 39.35256 | -89.77791 | 37139 ft | 610 kts | 40° |
| 2026-05-06 22:31 | 39.40902 | -89.69603 | 37079 ft | 611 kts | 40° |
| 2026-05-06 22:32 | 39.46552 | -89.61385 | 37068 ft | 611 kts | 40° |
| 2026-05-06 22:32 | 39.52201 | -89.53147 | 37072 ft | 611 kts | 40° |
| 2026-05-06 22:33 | 39.57838 | -89.44897 | 37136 ft | 611 kts | 40° |
| 2026-05-06 22:33 | 39.63458 | -89.36659 | 37074 ft | 611 kts | 40° |
| 2026-05-06 22:34 | 39.69087 | -89.28382 | 37068 ft | 610 kts | 41° |
| 2026-05-06 22:34 | 39.74657 | -89.20170 | 37049 ft | 609 kts | 40° |
| 2026-05-06 22:35 | 39.80247 | -89.11911 | 37116 ft | 608 kts | 40° |
| 2026-05-06 22:35 | 39.85828 | -89.03640 | 37048 ft | 608 kts | 41° |
| 2026-05-06 22:36 | 39.91412 | -88.95346 | 37057 ft | 607 kts | 41° |
| 2026-05-06 22:36 | 39.96966 | -88.87066 | 37052 ft | 605 kts | 41° |
| 2026-05-06 22:37 | 40.02501 | -88.78799 | 37130 ft | 605 kts | 41° |
| 2026-05-06 22:37 | 40.08028 | -88.70523 | 37053 ft | 605 kts | 41° |
| 2026-05-06 22:38 | 40.13517 | -88.62280 | 37052 ft | 604 kts | 41° |
| 2026-05-06 22:38 | 40.19023 | -88.53981 | 37052 ft | 603 kts | 41° |
| 2026-05-06 22:39 | 40.24506 | -88.45700 | 37090 ft | 602 kts | 41° |
| 2026-05-06 22:39 | 40.29969 | -88.37430 | 37051 ft | 601 kts | 41° |
| 2026-05-06 22:40 | 40.35130 | -88.28741 | 37051 ft | 605 kts | 49° |
| 2026-05-06 22:40 | 40.39957 | -88.19678 | 37047 ft | 605 kts | 50° |
| 2026-05-06 22:41 | 40.47116 | -88.06128 | 37077 ft | 605 kts | 49° |
| 2026-05-06 22:42 | 40.51955 | -87.97064 | 37037 ft | 604 kts | 49° |
| 2026-05-06 22:42 | 40.56786 | -87.88023 | 37033 ft | 604 kts | 49° |
| 2026-05-06 22:43 | 40.61607 | -87.78971 | 37032 ft | 603 kts | 49° |
| 2026-05-06 22:43 | 40.66408 | -87.69914 | 37000 ft | 603 kts | 49° |
| 2026-05-06 22:44 | 40.71196 | -87.60849 | 37032 ft | 603 kts | 49° |
| 2026-05-06 22:44 | 40.75999 | -87.51739 | 37027 ft | 604 kts | 49° |
| 2026-05-06 22:45 | 40.80793 | -87.42615 | 37026 ft | 605 kts | 49° |
| 2026-05-06 22:45 | 40.85593 | -87.33454 | 37028 ft | 607 kts | 49° |
| 2026-05-06 22:46 | 40.90366 | -87.24314 | 37058 ft | 607 kts | 50° |
| 2026-05-06 22:46 | 40.95155 | -87.15114 | 37038 ft | 606 kts | 50° |
| 2026-05-06 22:47 | 40.99915 | -87.05941 | 37030 ft | 603 kts | 50° |
| 2026-05-06 22:47 | 41.04650 | -86.96796 | 37024 ft | 601 kts | 50° |
| 2026-05-06 22:48 | 41.09339 | -86.87713 | 37076 ft | 600 kts | 50° |
| 2026-05-06 22:48 | 41.14047 | -86.78567 | 37009 ft | 600 kts | 50° |
| 2026-05-06 22:49 | 41.18747 | -86.69401 | 37006 ft | 599 kts | 50° |
| 2026-05-06 22:49 | 41.23433 | -86.60244 | 36996 ft | 599 kts | 50° |
| 2026-05-06 22:50 | 41.28110 | -86.51076 | 36992 ft | 598 kts | 50° |
| 2026-05-06 22:50 | 41.32773 | -86.41909 | 37035 ft | 599 kts | 50° |
| 2026-05-06 22:51 | 41.37400 | -86.32779 | 37004 ft | 598 kts | 50° |
| 2026-05-06 22:51 | 41.42045 | -86.23585 | 37012 ft | 597 kts | 51° |
| 2026-05-06 22:52 | 41.46671 | -86.14408 | 36991 ft | 596 kts | 50° |
| 2026-05-06 22:52 | 41.51288 | -86.05218 | 37047 ft | 596 kts | 52° |
| 2026-05-06 22:53 | 41.55410 | -85.95556 | 36998 ft | 599 kts | 60° |
| 2026-05-06 22:53 | 41.59099 | -85.85585 | 36988 ft | 598 kts | 61° |
| 2026-05-06 22:54 | 41.62744 | -85.75651 | 36991 ft | 597 kts | 60° |
| 2026-05-06 22:54 | 41.66445 | -85.65708 | 36994 ft | 595 kts | 60° |
| 2026-05-06 22:55 | 41.70157 | -85.55797 | 37043 ft | 595 kts | 60° |
| 2026-05-06 22:55 | 41.73852 | -85.45895 | 36986 ft | 594 kts | 60° |
| 2026-05-06 22:56 | 41.77504 | -85.36054 | 36989 ft | 592 kts | 60° |
| 2026-05-06 22:56 | 41.81168 | -85.26138 | 36992 ft | 593 kts | 60° |
| 2026-05-06 22:57 | 41.84827 | -85.16202 | 36997 ft | 594 kts | 60° |
| 2026-05-06 22:57 | 41.88482 | -85.06241 | 37063 ft | 596 kts | 61° |
| 2026-05-06 22:58 | 41.92117 | -84.96302 | 36988 ft | 596 kts | 61° |
| 2026-05-06 22:58 | 41.95760 | -84.86310 | 36993 ft | 594 kts | 61° |
| 2026-05-06 22:59 | 41.99368 | -84.76371 | 36990 ft | 593 kts | 61° |
| 2026-05-06 22:59 | 42.02981 | -84.66383 | 36955 ft | 593 kts | 61° |
| 2026-05-06 23:00 | 42.06558 | -84.56462 | 36979 ft | 593 kts | 61° |
| 2026-05-06 23:00 | 42.10151 | -84.46467 | 36993 ft | 593 kts | 61° |
| 2026-05-06 23:01 | 42.13735 | -84.36462 | 36991 ft | 592 kts | 61° |
| 2026-05-06 23:01 | 42.17303 | -84.26456 | 36959 ft | 591 kts | 62° |
| 2026-05-06 23:02 | 42.20828 | -84.16541 | 36981 ft | 590 kts | 62° |
| 2026-05-06 23:02 | 42.24365 | -84.06557 | 36981 ft | 589 kts | 62° |
| 2026-05-06 23:03 | 42.27892 | -83.96567 | 36978 ft | 589 kts | 62° |
| 2026-05-06 23:03 | 42.31410 | -83.86568 | 36957 ft | 588 kts | 62° |
| 2026-05-06 23:04 | 42.34901 | -83.76603 | 36971 ft | 586 kts | 62° |
| 2026-05-06 23:04 | 42.38362 | -83.66695 | 36977 ft | 586 kts | 62° |
| 2026-05-06 23:05 | 42.41588 | -83.56574 | 36980 ft | 587 kts | 70° |
| 2026-05-06 23:05 | 42.43867 | -83.45937 | 37015 ft | 588 kts | 74° |
| 2026-05-06 23:06 | 42.46005 | -83.35231 | 36979 ft | 588 kts | 74° |
| 2026-05-06 23:06 | 42.48178 | -83.24568 | 36971 ft | 587 kts | 73° |
| 2026-05-06 23:07 | 42.50382 | -83.13946 | 36945 ft | 587 kts | 73° |
| 2026-05-06 23:07 | 42.52580 | -83.03332 | 36598 ft | 575 kts | 73° |
| 2026-05-06 23:07 | 42.53653 | -82.98114 | 36196 ft | 570 kts | 73° |
| 2026-05-06 23:08 | 42.54711 | -82.92956 | 35725 ft | 566 kts | 73° |
| 2026-05-06 23:08 | 42.55759 | -82.87826 | 35220 ft | 564 kts | 74° |
| 2026-05-06 23:08 | 42.56808 | -82.82693 | 34695 ft | 564 kts | 74° |
| 2026-05-06 23:08 | 42.57850 | -82.77563 | 34128 ft | 563 kts | 73° |
| 2026-05-06 23:09 | 42.58872 | -82.72494 | 33573 ft | 564 kts | 74° |
| 2026-05-06 23:09 | 42.59903 | -82.67376 | 33156 ft | 559 kts | 74° |
| 2026-05-06 23:09 | 42.60927 | -82.62306 | 32843 ft | 553 kts | 73° |
| 2026-05-06 23:09 | 42.61944 | -82.57312 | 32504 ft | 547 kts | 73° |
| 2026-05-06 23:10 | 42.62955 | -82.52347 | 32128 ft | 543 kts | 73° |
| 2026-05-06 23:10 | 42.63936 | -82.47417 | 31689 ft | 540 kts | 74° |
| 2026-05-06 23:10 | 42.64898 | -82.42511 | 31234 ft | 536 kts | 74° |
| 2026-05-06 23:10 | 42.65857 | -82.37647 | 30806 ft | 533 kts | 73° |
| 2026-05-06 23:11 | 42.66830 | -82.32794 | 30437 ft | 529 kts | 74° |
| 2026-05-06 23:11 | 42.67806 | -82.28001 | 30100 ft | 523 kts | 70° |
| 2026-05-06 23:11 | 42.69243 | -82.23532 | 29606 ft | 510 kts | 51° |
| 2026-05-06 23:11 | 42.71284 | -82.19684 | 29158 ft | 497 kts | 45° |
| 2026-05-06 23:12 | 42.73406 | -82.16007 | 28766 ft | 491 kts | 45° |
| 2026-05-06 23:12 | 42.75466 | -82.12396 | 28469 ft | 487 kts | 46° |
| 2026-05-06 23:12 | 42.76828 | -82.09930 | 28351 ft | 480 kts | 47° |
| 2026-05-06 23:12 | 42.79417 | -82.05123 | 27945 ft | 472 kts | 48° |
| 2026-05-06 23:13 | 42.81278 | -82.01440 | 27513 ft | 471 kts | 53° |
| 2026-05-06 23:13 | 42.82945 | -81.97583 | 27117 ft | 470 kts | 57° |
| 2026-05-06 23:13 | 42.84502 | -81.93688 | 26756 ft | 466 kts | 58° |
| 2026-05-06 23:13 | 42.85531 | -81.91063 | 26513 ft | 463 kts | 58° |
| 2026-05-06 23:14 | 42.87044 | -81.87222 | 26170 ft | 458 kts | 58° |
| 2026-05-06 23:14 | 42.88545 | -81.83469 | 25815 ft | 453 kts | 58° |
| 2026-05-06 23:14 | 42.90062 | -81.79726 | 25471 ft | 449 kts | 57° |
| 2026-05-06 23:14 | 42.91580 | -81.76016 | 25128 ft | 445 kts | 57° |
| 2026-05-06 23:15 | 42.93084 | -81.72353 | 24829 ft | 440 kts | 58° |
| 2026-05-06 23:15 | 42.94581 | -81.68709 | 24507 ft | 436 kts | 58° |
| 2026-05-06 23:15 | 42.96058 | -81.65111 | 24147 ft | 433 kts | 58° |
| 2026-05-06 23:15 | 42.97504 | -81.61585 | 23819 ft | 429 kts | 58° |
| 2026-05-06 23:16 | 42.98973 | -81.57990 | 23482 ft | 426 kts | 59° |
| 2026-05-06 23:16 | 43.00396 | -81.54507 | 23083 ft | 422 kts | 59° |
| 2026-05-06 23:16 | 43.01821 | -81.51013 | 22679 ft | 420 kts | 59° |
| 2026-05-06 23:16 | 43.03237 | -81.47535 | 22261 ft | 417 kts | 59° |
| 2026-05-06 23:17 | 43.04643 | -81.44079 | 21868 ft | 414 kts | 59° |
| 2026-05-06 23:17 | 43.06039 | -81.40642 | 21491 ft | 412 kts | 59° |
| 2026-05-06 23:17 | 43.07419 | -81.37230 | 21108 ft | 409 kts | 59° |
| 2026-05-06 23:17 | 43.08771 | -81.33816 | 20720 ft | 407 kts | 60° |
| 2026-05-06 23:18 | 43.10101 | -81.30414 | 20380 ft | 404 kts | 60° |
| 2026-05-06 23:18 | 43.11421 | -81.27021 | 19948 ft | 403 kts | 60° |
| 2026-05-06 23:18 | 43.12733 | -81.23650 | 19610 ft | 400 kts | 60° |
| 2026-05-06 23:18 | 43.14033 | -81.20304 | 19259 ft | 396 kts | 60° |
| 2026-05-06 23:19 | 43.15324 | -81.16987 | 18883 ft | 394 kts | 60° |
| 2026-05-06 23:19 | 43.16606 | -81.13688 | 18519 ft | 391 kts | 60° |
| 2026-05-06 23:19 | 43.17873 | -81.10433 | 18127 ft | 388 kts | 60° |
| 2026-05-06 23:19 | 43.19142 | -81.07170 | 17724 ft | 386 kts | 60° |
| 2026-05-06 23:20 | 43.20398 | -81.03938 | 17320 ft | 383 kts | 60° |
| 2026-05-06 23:20 | 43.21645 | -81.00726 | 16932 ft | 379 kts | 60° |
| 2026-05-06 23:20 | 43.22877 | -80.97542 | 16544 ft | 377 kts | 60° |
| 2026-05-06 23:20 | 43.24099 | -80.94380 | 16149 ft | 374 kts | 60° |
| 2026-05-06 23:21 | 43.25318 | -80.91228 | 15762 ft | 372 kts | 60° |
| 2026-05-06 23:21 | 43.26512 | -80.88138 | 15384 ft | 370 kts | 60° |
| 2026-05-06 23:21 | 43.27709 | -80.85029 | 15041 ft | 366 kts | 60° |
| 2026-05-06 23:21 | 43.28894 | -80.81947 | 14669 ft | 364 kts | 60° |
| 2026-05-06 23:22 | 43.30072 | -80.78887 | 14316 ft | 361 kts | 60° |
| 2026-05-06 23:22 | 43.31234 | -80.75865 | 13949 ft | 358 kts | 60° |
| 2026-05-06 23:22 | 43.32393 | -80.72843 | 13561 ft | 356 kts | 60° |
| 2026-05-06 23:22 | 43.33543 | -80.69847 | 13200 ft | 352 kts | 60° |
| 2026-05-06 23:23 | 43.34679 | -80.66878 | 12838 ft | 349 kts | 60° |
| 2026-05-06 23:23 | 43.35803 | -80.63943 | 12500 ft | 345 kts | 60° |
| 2026-05-06 23:23 | 43.36917 | -80.61033 | 12157 ft | 342 kts | 60° |
| 2026-05-06 23:23 | 43.38017 | -80.58157 | 11823 ft | 339 kts | 60° |
| 2026-05-06 23:24 | 43.39107 | -80.55298 | 11482 ft | 336 kts | 60° |
| 2026-05-06 23:24 | 43.40172 | -80.52505 | 11199 ft | 331 kts | 60° |
| 2026-05-06 23:24 | 43.41228 | -80.49728 | 10996 ft | 324 kts | 60° |
| 2026-05-06 23:24 | 43.42256 | -80.47028 | 10835 ft | 315 kts | 60° |
| 2026-05-06 23:25 | 43.43262 | -80.44380 | 10616 ft | 309 kts | 59° |
| 2026-05-06 23:25 | 43.44252 | -80.41775 | 10323 ft | 306 kts | 60° |
| 2026-05-06 23:25 | 43.45234 | -80.39184 | 10006 ft | 303 kts | 59° |
| 2026-05-06 23:25 | 43.46110 | -80.36566 | 9615 ft | 302 kts | 70° |
| 2026-05-06 23:26 | 43.46640 | -80.33800 | 9275 ft | 301 kts | 76° |
| 2026-05-06 23:26 | 43.47073 | -80.30991 | 8978 ft | 298 kts | 76° |
| 2026-05-06 23:26 | 43.47511 | -80.28217 | 8678 ft | 295 kts | 75° |
| 2026-05-06 23:26 | 43.47970 | -80.25491 | 8357 ft | 292 kts | 74° |
| 2026-05-06 23:27 | 43.48444 | -80.22772 | 8037 ft | 290 kts | 74° |
| 2026-05-06 23:27 | 43.48914 | -80.20108 | 7887 ft | 282 kts | 73° |
| 2026-05-06 23:27 | 43.49335 | -80.17550 | 7784 ft | 265 kts | 79° |
| 2026-05-06 23:27 | 43.49255 | -80.15044 | 7362 ft | 260 kts | 101° |
| 2026-05-06 23:28 | 43.48930 | -80.12613 | 6935 ft | 257 kts | 101° |
| 2026-05-06 23:28 | 43.48622 | -80.10188 | 6514 ft | 255 kts | 100° |
| 2026-05-06 23:28 | 43.48328 | -80.07807 | 6165 ft | 250 kts | 99° |
| 2026-05-06 23:28 | 43.48044 | -80.05460 | 5924 ft | 251 kts | 99° |
| 2026-05-06 23:29 | 43.47757 | -80.03053 | 5718 ft | 257 kts | 98° |
| 2026-05-06 23:29 | 43.47472 | -80.00647 | 5598 ft | 255 kts | 98° |
| 2026-05-06 23:29 | 43.47188 | -79.98244 | 5445 ft | 253 kts | 98° |
| 2026-05-06 23:29 | 43.46908 | -79.95890 | 5157 ft | 250 kts | 98° |
| 2026-05-06 23:30 | 43.46626 | -79.93530 | 4866 ft | 249 kts | 97° |
| 2026-05-06 23:30 | 43.46600 | -79.91199 | 4611 ft | 244 kts | 73° |
| 2026-05-06 23:30 | 43.47409 | -79.89218 | 4463 ft | 234 kts | 44° |
| 2026-05-06 23:30 | 43.48553 | -79.87672 | 4311 ft | 235 kts | 39° |
| 2026-05-06 23:31 | 43.49684 | -79.86105 | 4048 ft | 224 kts | 41° |
| 2026-05-06 23:31 | 43.50714 | -79.84629 | 3835 ft | 206 kts | 41° |
| 2026-05-06 23:31 | 43.51681 | -79.83231 | 3674 ft | 195 kts | 40° |
| 2026-05-06 23:31 | 43.52592 | -79.81917 | 3503 ft | 183 kts | 41° |
| 2026-05-06 23:32 | 43.53446 | -79.80686 | 3352 ft | 178 kts | 40° |
| 2026-05-06 23:32 | 43.54306 | -79.79446 | 3213 ft | 178 kts | 41° |
| 2026-05-06 23:32 | 43.55154 | -79.78220 | 3102 ft | 177 kts | 42° |
| 2026-05-06 23:32 | 43.56005 | -79.76989 | 3039 ft | 177 kts | 41° |
| 2026-05-06 23:33 | 43.56855 | -79.75760 | 3021 ft | 177 kts | 41° |
| 2026-05-06 23:33 | 43.57702 | -79.74534 | 3021 ft | 178 kts | 43° |
| 2026-05-06 23:33 | 43.58570 | -79.73278 | 2828 ft | 182 kts | 41° |
| 2026-05-06 23:33 | 43.59420 | -79.72034 | 2567 ft | 175 kts | 41° |
| 2026-05-06 23:34 | 43.60237 | -79.70860 | 2322 ft | 174 kts | 41° |
| 2026-05-06 23:34 | 43.61071 | -79.69648 | 2079 ft | 174 kts | 42° |
| 2026-05-06 23:34 | 43.61906 | -79.68438 | 1838 ft | 174 kts | 41° |
| 2026-05-06 23:34 | 43.62725 | -79.67249 | 1601 ft | 170 kts | 41° |
| 2026-05-06 23:35 | 43.63542 | -79.66069 | 1349 ft | 171 kts | 42° |
| 2026-05-06 23:35 | 43.64356 | -79.64882 | 1099 ft | 169 kts | 42° |
| 2026-05-06 23:35 | 43.65156 | -79.63722 | 881 ft | 165 kts | 44° |
| 2026-05-06 23:35 | 43.65938 | -79.62575 | 661 ft | 160 kts | 43° |
| 2026-05-06 23:36 | 43.66640 | -79.61559 | 571 ft | 135 kts | 39° |
| 2026-05-06 23:36 | 43.67184 | -79.60775 | 574 ft | 91 kts | 46° |
| 2026-05-06 23:36 | 43.67512 | -79.60426 | 573 ft | 42 kts | 14° |
| 2026-05-06 23:36 | 43.67750 | -79.60319 | 571 ft | 20 kts | 354° |
| 2026-05-06 23:37 | 43.67840 | -79.60446 | 574 ft | 20 kts | 270° |
| 2026-05-06 23:37 | 43.67757 | -79.60589 | 574 ft | 20 kts | 225° |
| 2026-05-06 23:37 | 43.67665 | -79.60730 | 571 ft | 20 kts | 232° |
| 2026-05-06 23:37 | 43.67572 | -79.60871 | 573 ft | 20 kts | 227° |
| 2026-05-06 23:38 | 43.67498 | -79.61029 | 573 ft | 20 kts | 249° |
| 2026-05-06 23:38 | 43.67481 | -79.61216 | 569 ft | 20 kts | 274° |
| 2026-05-06 23:38 | 43.67529 | -79.61393 | 571 ft | 20 kts | 302° |
| 2026-05-06 23:38 | 43.67585 | -79.61485 | 573 ft | 0 kts | 335° |
| 2026-05-06 23:39 | 43.67614 | -79.61484 | 575 ft | 0 kts | 20° |
| 2026-05-06 23:39 | 43.67616 | -79.61482 | 566 ft | 0 kts | 31° |
| 2026-05-06 23:39 | 43.67617 | -79.61478 | 566 ft | 1 kts | 45° |
| 2026-05-06 23:39 | 43.67619 | -79.61473 | 566 ft | 1 kts | 61° |
| 2026-05-06 23:40 | 43.67620 | -79.61466 | 566 ft | 1 kts | 70° |
| 2026-05-06 23:40 | 43.67623 | -79.61452 | 574 ft | 2 kts | 71° |
| 2026-05-06 23:40 | 43.67631 | -79.61431 | 566 ft | 3 kts | 60° |
| 2026-05-06 23:40 | 43.67643 | -79.61403 | 575 ft | 4 kts | 60° |
| 2026-05-06 23:41 | 43.67649 | -79.61388 | 566 ft | 0 kts | 60° |